sensor_id;sensor_type;location;lat;lon;timestamp;P1;durP1;ratioP1;P2;durP2;ratioP2
15818;SDS011;8010;53.986;12.106;2023-04-25T00:00:17;4.73;;;3.40;;
15818;SDS011;8010;53.986;12.106;2023-04-25T00:02:43;3.77;;;3.10;;
15818;SDS011;8010;53.986;12.106;2023-04-25T00:05:08;6.07;;;3.63;;
15818;SDS011;8010;53.986;12.106;2023-04-25T00:07:35;5.70;;;4.10;;
15818;SDS011;8010;53.986;12.106;2023-04-25T00:10:00;4.20;;;3.27;;
15818;SDS011;8010;53.986;12.106;2023-04-25T00:12:26;6.50;;;4.10;;
15818;SDS011;8010;53.986;12.106;2023-04-25T00:14:53;5.40;;;4.30;;
15818;SDS011;8010;53.986;12.106;2023-04-25T00:17:21;6.87;;;4.60;;
15818;SDS011;8010;53.986;12.106;2023-04-25T00:19:49;6.43;;;4.70;;
15818;SDS011;8010;53.986;12.106;2023-04-25T00:22:15;7.97;;;4.07;;
15818;SDS011;8010;53.986;12.106;2023-04-25T00:24:41;6.40;;;4.57;;
15818;SDS011;8010;53.986;12.106;2023-04-25T00:27:06;7.20;;;4.67;;
15818;SDS011;8010;53.986;12.106;2023-04-25T00:29:32;9.07;;;4.87;;
15818;SDS011;8010;53.986;12.106;2023-04-25T00:31:58;7.63;;;4.50;;
15818;SDS011;8010;53.986;12.106;2023-04-25T00:34:23;8.77;;;5.37;;
15818;SDS011;8010;53.986;12.106;2023-04-25T00:36:49;5.60;;;4.50;;
15818;SDS011;8010;53.986;12.106;2023-04-25T00:39:15;7.90;;;5.20;;
15818;SDS011;8010;53.986;12.106;2023-04-25T00:41:40;9.27;;;4.90;;
15818;SDS011;8010;53.986;12.106;2023-04-25T00:44:08;6.40;;;5.07;;
15818;SDS011;8010;53.986;12.106;2023-04-25T00:46:36;6.40;;;4.73;;
15818;SDS011;8010;53.986;12.106;2023-04-25T00:49:03;7.43;;;4.87;;
15818;SDS011;8010;53.986;12.106;2023-04-25T00:51:29;8.57;;;4.60;;
15818;SDS011;8010;53.986;12.106;2023-04-25T00:53:55;7.67;;;4.70;;
15818;SDS011;8010;53.986;12.106;2023-04-25T00:56:21;6.63;;;4.80;;
15818;SDS011;8010;53.986;12.106;2023-04-25T00:58:47;6.33;;;4.40;;
15818;SDS011;8010;53.986;12.106;2023-04-25T01:01:13;8.60;;;5.33;;
15818;SDS011;8010;53.986;12.106;2023-04-25T01:03:39;5.37;;;4.20;;
15818;SDS011;8010;53.986;12.106;2023-04-25T01:06:06;6.80;;;4.77;;
15818;SDS011;8010;53.986;12.106;2023-04-25T01:08:34;7.30;;;4.97;;
15818;SDS011;8010;53.986;12.106;2023-04-25T01:11:00;4.93;;;4.27;;
15818;SDS011;8010;53.986;12.106;2023-04-25T01:13:26;6.47;;;4.97;;
15818;SDS011;8010;53.986;12.106;2023-04-25T01:15:51;7.93;;;4.87;;
15818;SDS011;8010;53.986;12.106;2023-04-25T01:18:18;6.90;;;5.00;;
15818;SDS011;8010;53.986;12.106;2023-04-25T01:20:44;8.50;;;4.50;;
15818;SDS011;8010;53.986;12.106;2023-04-25T01:23:11;6.97;;;4.97;;
15818;SDS011;8010;53.986;12.106;2023-04-25T01:25:37;8.50;;;4.37;;
15818;SDS011;8010;53.986;12.106;2023-04-25T01:28:04;6.43;;;4.33;;
15818;SDS011;8010;53.986;12.106;2023-04-25T01:30:30;6.70;;;4.77;;
15818;SDS011;8010;53.986;12.106;2023-04-25T01:32:56;7.37;;;4.37;;
15818;SDS011;8010;53.986;12.106;2023-04-25T01:35:22;7.10;;;4.23;;
15818;SDS011;8010;53.986;12.106;2023-04-25T01:37:49;8.87;;;4.97;;
15818;SDS011;8010;53.986;12.106;2023-04-25T01:40:14;9.17;;;5.10;;
15818;SDS011;8010;53.986;12.106;2023-04-25T01:42:41;7.47;;;4.83;;
15818;SDS011;8010;53.986;12.106;2023-04-25T01:45:08;7.77;;;3.90;;
15818;SDS011;8010;53.986;12.106;2023-04-25T01:47:34;8.13;;;4.70;;
15818;SDS011;8010;53.986;12.106;2023-04-25T01:50:00;6.60;;;4.20;;
15818;SDS011;8010;53.986;12.106;2023-04-25T01:52:26;6.77;;;4.60;;
15818;SDS011;8010;53.986;12.106;2023-04-25T01:54:52;7.73;;;3.73;;
15818;SDS011;8010;53.986;12.106;2023-04-25T01:57:18;7.30;;;4.30;;
15818;SDS011;8010;53.986;12.106;2023-04-25T01:59:44;5.77;;;3.37;;
15818;SDS011;8010;53.986;12.106;2023-04-25T02:02:10;5.37;;;3.00;;
15818;SDS011;8010;53.986;12.106;2023-04-25T02:04:36;6.17;;;3.27;;
15818;SDS011;8010;53.986;12.106;2023-04-25T02:07:01;9.07;;;3.40;;
15818;SDS011;8010;53.986;12.106;2023-04-25T02:09:28;7.63;;;2.90;;
15818;SDS011;8010;53.986;12.106;2023-04-25T02:11:54;6.23;;;3.50;;
15818;SDS011;8010;53.986;12.106;2023-04-25T02:14:19;6.03;;;2.63;;
15818;SDS011;8010;53.986;12.106;2023-04-25T02:16:45;7.73;;;3.63;;
15818;SDS011;8010;53.986;12.106;2023-04-25T02:19:11;7.40;;;3.23;;
15818;SDS011;8010;53.986;12.106;2023-04-25T02:21:37;4.63;;;2.83;;
15818;SDS011;8010;53.986;12.106;2023-04-25T02:24:02;6.70;;;3.27;;
15818;SDS011;8010;53.986;12.106;2023-04-25T02:26:28;7.87;;;3.03;;
15818;SDS011;8010;53.986;12.106;2023-04-25T02:28:55;5.23;;;3.10;;
15818;SDS011;8010;53.986;12.106;2023-04-25T02:31:21;6.03;;;3.43;;
15818;SDS011;8010;53.986;12.106;2023-04-25T02:33:47;4.87;;;2.97;;
15818;SDS011;8010;53.986;12.106;2023-04-25T02:36:13;7.83;;;3.00;;
15818;SDS011;8010;53.986;12.106;2023-04-25T02:38:39;4.60;;;3.17;;
15818;SDS011;8010;53.986;12.106;2023-04-25T02:41:04;8.27;;;3.90;;
15818;SDS011;8010;53.986;12.106;2023-04-25T02:43:30;5.60;;;3.20;;
15818;SDS011;8010;53.986;12.106;2023-04-25T02:45:55;7.00;;;3.20;;
15818;SDS011;8010;53.986;12.106;2023-04-25T02:48:21;7.40;;;3.20;;
15818;SDS011;8010;53.986;12.106;2023-04-25T02:50:47;4.73;;;2.70;;
15818;SDS011;8010;53.986;12.106;2023-04-25T02:53:12;7.83;;;3.40;;
15818;SDS011;8010;53.986;12.106;2023-04-25T02:55:38;6.37;;;2.60;;
15818;SDS011;8010;53.986;12.106;2023-04-25T02:58:04;6.57;;;2.17;;
15818;SDS011;8010;53.986;12.106;2023-04-25T03:00:29;6.50;;;1.97;;
15818;SDS011;8010;53.986;12.106;2023-04-25T03:02:55;5.93;;;2.00;;
15818;SDS011;8010;53.986;12.106;2023-04-25T03:05:21;9.83;;;2.20;;
15818;SDS011;8010;53.986;12.106;2023-04-25T03:07:46;5.70;;;1.67;;
15818;SDS011;8010;53.986;12.106;2023-04-25T03:10:12;7.20;;;1.80;;
15818;SDS011;8010;53.986;12.106;2023-04-25T03:12:37;9.87;;;1.60;;
15818;SDS011;8010;53.986;12.106;2023-04-25T03:15:03;8.17;;;1.83;;
15818;SDS011;8010;53.986;12.106;2023-04-25T03:17:29;6.83;;;2.37;;
15818;SDS011;8010;53.986;12.106;2023-04-25T03:19:55;10.07;;;2.33;;
15818;SDS011;8010;53.986;12.106;2023-04-25T03:22:20;7.40;;;2.47;;
15818;SDS011;8010;53.986;12.106;2023-04-25T03:24:46;8.33;;;2.10;;
15818;SDS011;8010;53.986;12.106;2023-04-25T03:27:12;6.60;;;1.83;;
15818;SDS011;8010;53.986;12.106;2023-04-25T03:29:38;11.37;;;3.10;;
15818;SDS011;8010;53.986;12.106;2023-04-25T03:32:03;10.17;;;1.90;;
15818;SDS011;8010;53.986;12.106;2023-04-25T03:34:29;7.87;;;2.33;;
15818;SDS011;8010;53.986;12.106;2023-04-25T03:36:55;11.63;;;1.90;;
15818;SDS011;8010;53.986;12.106;2023-04-25T03:39:21;6.97;;;1.83;;
15818;SDS011;8010;53.986;12.106;2023-04-25T03:41:46;12.73;;;2.50;;
15818;SDS011;8010;53.986;12.106;2023-04-25T03:44:12;9.13;;;1.97;;
15818;SDS011;8010;53.986;12.106;2023-04-25T03:46:37;7.37;;;2.07;;
15818;SDS011;8010;53.986;12.106;2023-04-25T03:49:03;7.30;;;2.23;;
15818;SDS011;8010;53.986;12.106;2023-04-25T03:51:28;6.93;;;2.00;;
15818;SDS011;8010;53.986;12.106;2023-04-25T03:53:54;9.03;;;2.13;;
15818;SDS011;8010;53.986;12.106;2023-04-25T03:56:20;11.30;;;1.93;;
15818;SDS011;8010;53.986;12.106;2023-04-25T03:58:45;9.03;;;2.30;;
15818;SDS011;8010;53.986;12.106;2023-04-25T04:01:11;10.10;;;2.70;;
15818;SDS011;8010;53.986;12.106;2023-04-25T04:03:37;8.23;;;1.80;;
15818;SDS011;8010;53.986;12.106;2023-04-25T04:06:05;6.43;;;1.77;;
15818;SDS011;8010;53.986;12.106;2023-04-25T04:08:32;7.43;;;2.77;;
15818;SDS011;8010;53.986;12.106;2023-04-25T04:10:58;3.70;;;1.77;;
15818;SDS011;8010;53.986;12.106;2023-04-25T04:13:27;8.83;;;2.70;;
15818;SDS011;8010;53.986;12.106;2023-04-25T04:15:53;9.33;;;1.97;;
15818;SDS011;8010;53.986;12.106;2023-04-25T04:18:19;11.80;;;2.30;;
15818;SDS011;8010;53.986;12.106;2023-04-25T04:20:44;4.13;;;2.00;;
15818;SDS011;8010;53.986;12.106;2023-04-25T04:23:10;7.20;;;2.20;;
15818;SDS011;8010;53.986;12.106;2023-04-25T04:25:36;15.17;;;2.40;;
15818;SDS011;8010;53.986;12.106;2023-04-25T04:28:02;7.63;;;1.87;;
15818;SDS011;8010;53.986;12.106;2023-04-25T04:30:27;8.57;;;2.23;;
15818;SDS011;8010;53.986;12.106;2023-04-25T04:32:56;6.67;;;2.30;;
15818;SDS011;8010;53.986;12.106;2023-04-25T04:35:22;2.87;;;1.93;;
15818;SDS011;8010;53.986;12.106;2023-04-25T04:37:49;8.77;;;1.97;;
15818;SDS011;8010;53.986;12.106;2023-04-25T04:40:15;10.60;;;2.43;;
15818;SDS011;8010;53.986;12.106;2023-04-25T04:42:43;7.07;;;1.90;;
15818;SDS011;8010;53.986;12.106;2023-04-25T04:45:13;6.57;;;1.60;;
15818;SDS011;8010;53.986;12.106;2023-04-25T04:47:38;11.67;;;2.40;;
15818;SDS011;8010;53.986;12.106;2023-04-25T04:50:05;10.43;;;2.27;;
15818;SDS011;8010;53.986;12.106;2023-04-25T04:52:33;11.87;;;2.70;;
15818;SDS011;8010;53.986;12.106;2023-04-25T04:54:59;8.23;;;1.90;;
15818;SDS011;8010;53.986;12.106;2023-04-25T04:57:24;15.63;;;2.33;;
15818;SDS011;8010;53.986;12.106;2023-04-25T04:59:50;6.50;;;1.70;;
15818;SDS011;8010;53.986;12.106;2023-04-25T05:02:16;7.00;;;2.33;;
15818;SDS011;8010;53.986;12.106;2023-04-25T05:04:42;8.60;;;2.77;;
15818;SDS011;8010;53.986;12.106;2023-04-25T05:07:07;9.10;;;2.30;;
15818;SDS011;8010;53.986;12.106;2023-04-25T05:09:33;7.63;;;1.90;;
15818;SDS011;8010;53.986;12.106;2023-04-25T05:11:58;7.20;;;1.87;;
15818;SDS011;8010;53.986;12.106;2023-04-25T05:14:24;12.57;;;2.50;;
15818;SDS011;8010;53.986;12.106;2023-04-25T05:16:49;10.17;;;3.00;;
15818;SDS011;8010;53.986;12.106;2023-04-25T05:19:15;11.87;;;2.07;;
15818;SDS011;8010;53.986;12.106;2023-04-25T05:21:41;14.83;;;2.80;;
15818;SDS011;8010;53.986;12.106;2023-04-25T05:24:08;8.90;;;2.53;;
15818;SDS011;8010;53.986;12.106;2023-04-25T05:26:33;15.27;;;2.47;;
15818;SDS011;8010;53.986;12.106;2023-04-25T05:28:59;13.00;;;1.87;;
15818;SDS011;8010;53.986;12.106;2023-04-25T05:31:25;19.60;;;2.30;;
15818;SDS011;8010;53.986;12.106;2023-04-25T05:33:51;5.40;;;1.63;;
15818;SDS011;8010;53.986;12.106;2023-04-25T05:36:18;11.40;;;2.17;;
15818;SDS011;8010;53.986;12.106;2023-04-25T05:38:44;12.63;;;2.27;;
15818;SDS011;8010;53.986;12.106;2023-04-25T05:41:10;12.17;;;2.30;;
15818;SDS011;8010;53.986;12.106;2023-04-25T05:43:35;12.50;;;1.90;;
15818;SDS011;8010;53.986;12.106;2023-04-25T05:46:01;10.40;;;1.97;;
15818;SDS011;8010;53.986;12.106;2023-04-25T05:48:26;11.23;;;2.00;;
15818;SDS011;8010;53.986;12.106;2023-04-25T05:50:52;10.33;;;2.20;;
15818;SDS011;8010;53.986;12.106;2023-04-25T05:53:18;7.07;;;2.10;;
15818;SDS011;8010;53.986;12.106;2023-04-25T05:55:44;13.03;;;2.13;;
15818;SDS011;8010;53.986;12.106;2023-04-25T05:58:10;6.27;;;2.10;;
15818;SDS011;8010;53.986;12.106;2023-04-25T06:00:35;14.30;;;1.97;;
15818;SDS011;8010;53.986;12.106;2023-04-25T06:03:01;8.10;;;2.67;;
15818;SDS011;8010;53.986;12.106;2023-04-25T06:05:26;7.50;;;1.80;;
15818;SDS011;8010;53.986;12.106;2023-04-25T06:07:52;14.80;;;2.90;;
15818;SDS011;8010;53.986;12.106;2023-04-25T06:10:17;13.17;;;2.80;;
15818;SDS011;8010;53.986;12.106;2023-04-25T06:12:43;8.90;;;1.93;;
15818;SDS011;8010;53.986;12.106;2023-04-25T06:15:09;10.73;;;2.07;;
15818;SDS011;8010;53.986;12.106;2023-04-25T06:17:35;9.60;;;2.90;;
15818;SDS011;8010;53.986;12.106;2023-04-25T06:20:01;12.23;;;2.30;;
15818;SDS011;8010;53.986;12.106;2023-04-25T06:22:27;14.80;;;2.50;;
15818;SDS011;8010;53.986;12.106;2023-04-25T06:24:52;11.70;;;2.50;;
15818;SDS011;8010;53.986;12.106;2023-04-25T06:27:17;8.07;;;2.37;;
15818;SDS011;8010;53.986;12.106;2023-04-25T06:29:43;7.47;;;1.87;;
15818;SDS011;8010;53.986;12.106;2023-04-25T06:32:08;10.90;;;2.30;;
15818;SDS011;8010;53.986;12.106;2023-04-25T06:34:34;11.37;;;1.77;;
15818;SDS011;8010;53.986;12.106;2023-04-25T06:36:59;4.27;;;1.67;;
15818;SDS011;8010;53.986;12.106;2023-04-25T06:39:25;10.60;;;2.40;;
15818;SDS011;8010;53.986;12.106;2023-04-25T06:41:51;6.07;;;1.97;;
15818;SDS011;8010;53.986;12.106;2023-04-25T06:44:16;8.70;;;1.70;;
15818;SDS011;8010;53.986;12.106;2023-04-25T06:46:42;6.50;;;2.13;;
15818;SDS011;8010;53.986;12.106;2023-04-25T06:49:07;9.30;;;2.20;;
15818;SDS011;8010;53.986;12.106;2023-04-25T06:51:33;11.70;;;1.80;;
15818;SDS011;8010;53.986;12.106;2023-04-25T06:53:58;11.40;;;2.07;;
15818;SDS011;8010;53.986;12.106;2023-04-25T06:56:24;6.80;;;1.93;;
15818;SDS011;8010;53.986;12.106;2023-04-25T06:58:49;13.87;;;2.60;;
15818;SDS011;8010;53.986;12.106;2023-04-25T07:01:15;11.40;;;2.00;;
15818;SDS011;8010;53.986;12.106;2023-04-25T07:03:40;11.10;;;2.10;;
15818;SDS011;8010;53.986;12.106;2023-04-25T07:06:06;7.80;;;1.90;;
15818;SDS011;8010;53.986;12.106;2023-04-25T07:08:32;10.97;;;1.97;;
15818;SDS011;8010;53.986;12.106;2023-04-25T07:10:57;8.00;;;1.83;;
15818;SDS011;8010;53.986;12.106;2023-04-25T07:13:23;10.23;;;1.60;;
15818;SDS011;8010;53.986;12.106;2023-04-25T07:15:48;7.80;;;1.60;;
15818;SDS011;8010;53.986;12.106;2023-04-25T07:18:14;8.77;;;2.30;;
15818;SDS011;8010;53.986;12.106;2023-04-25T07:20:40;17.10;;;2.30;;
15818;SDS011;8010;53.986;12.106;2023-04-25T07:23:05;5.97;;;1.77;;
15818;SDS011;8010;53.986;12.106;2023-04-25T07:25:31;8.13;;;1.77;;
15818;SDS011;8010;53.986;12.106;2023-04-25T07:27:57;7.53;;;1.57;;
15818;SDS011;8010;53.986;12.106;2023-04-25T07:30:22;9.37;;;1.67;;
15818;SDS011;8010;53.986;12.106;2023-04-25T07:32:48;12.10;;;1.50;;
15818;SDS011;8010;53.986;12.106;2023-04-25T07:35:15;10.70;;;1.93;;
15818;SDS011;8010;53.986;12.106;2023-04-25T07:37:40;8.57;;;2.43;;
15818;SDS011;8010;53.986;12.106;2023-04-25T07:40:06;9.00;;;1.77;;
15818;SDS011;8010;53.986;12.106;2023-04-25T07:42:33;8.87;;;1.83;;
15818;SDS011;8010;53.986;12.106;2023-04-25T07:44:59;6.57;;;1.53;;
15818;SDS011;8010;53.986;12.106;2023-04-25T07:47:25;11.50;;;2.00;;
15818;SDS011;8010;53.986;12.106;2023-04-25T07:49:51;4.47;;;1.60;;
15818;SDS011;8010;53.986;12.106;2023-04-25T07:52:16;9.03;;;1.90;;
15818;SDS011;8010;53.986;12.106;2023-04-25T07:54:42;9.20;;;1.67;;
15818;SDS011;8010;53.986;12.106;2023-04-25T07:57:07;8.47;;;2.20;;
15818;SDS011;8010;53.986;12.106;2023-04-25T07:59:33;13.67;;;2.70;;
15818;SDS011;8010;53.986;12.106;2023-04-25T08:01:59;11.70;;;2.10;;
15818;SDS011;8010;53.986;12.106;2023-04-25T08:04:25;9.53;;;2.53;;
15818;SDS011;8010;53.986;12.106;2023-04-25T08:06:51;9.00;;;2.23;;
15818;SDS011;8010;53.986;12.106;2023-04-25T08:09:18;8.23;;;1.57;;
15818;SDS011;8010;53.986;12.106;2023-04-25T08:11:44;8.93;;;2.03;;
15818;SDS011;8010;53.986;12.106;2023-04-25T08:14:11;12.60;;;1.90;;
15818;SDS011;8010;53.986;12.106;2023-04-25T08:16:37;5.63;;;1.67;;
15818;SDS011;8010;53.986;12.106;2023-04-25T08:19:02;8.03;;;1.70;;
15818;SDS011;8010;53.986;12.106;2023-04-25T08:21:28;4.43;;;1.60;;
15818;SDS011;8010;53.986;12.106;2023-04-25T08:23:53;7.67;;;1.47;;
15818;SDS011;8010;53.986;12.106;2023-04-25T08:26:19;9.90;;;2.43;;
15818;SDS011;8010;53.986;12.106;2023-04-25T08:28:45;5.70;;;1.40;;
15818;SDS011;8010;53.986;12.106;2023-04-25T08:31:11;7.57;;;1.63;;
15818;SDS011;8010;53.986;12.106;2023-04-25T08:33:37;14.47;;;1.80;;
15818;SDS011;8010;53.986;12.106;2023-04-25T08:36:02;10.10;;;2.10;;
15818;SDS011;8010;53.986;12.106;2023-04-25T08:38:28;4.77;;;1.80;;
15818;SDS011;8010;53.986;12.106;2023-04-25T08:40:54;8.30;;;2.37;;
15818;SDS011;8010;53.986;12.106;2023-04-25T08:43:21;3.93;;;1.27;;
15818;SDS011;8010;53.986;12.106;2023-04-25T08:45:49;7.20;;;1.73;;
15818;SDS011;8010;53.986;12.106;2023-04-25T08:48:18;10.27;;;2.57;;
15818;SDS011;8010;53.986;12.106;2023-04-25T08:50:45;6.23;;;2.17;;
15818;SDS011;8010;53.986;12.106;2023-04-25T08:53:16;8.97;;;1.87;;
15818;SDS011;8010;53.986;12.106;2023-04-25T08:55:44;7.40;;;1.50;;
15818;SDS011;8010;53.986;12.106;2023-04-25T08:58:11;5.27;;;1.67;;
15818;SDS011;8010;53.986;12.106;2023-04-25T09:00:37;7.83;;;1.50;;
15818;SDS011;8010;53.986;12.106;2023-04-25T09:03:03;5.33;;;1.50;;
15818;SDS011;8010;53.986;12.106;2023-04-25T09:05:29;9.90;;;2.23;;
15818;SDS011;8010;53.986;12.106;2023-04-25T09:07:56;5.10;;;1.57;;
15818;SDS011;8010;53.986;12.106;2023-04-25T09:10:23;7.90;;;1.97;;
15818;SDS011;8010;53.986;12.106;2023-04-25T09:13:07;16.27;;;1.80;;
15818;SDS011;8010;53.986;12.106;2023-04-25T09:15:48;5.20;;;1.23;;
15818;SDS011;8010;53.986;12.106;2023-04-25T09:18:21;5.03;;;1.33;;
15818;SDS011;8010;53.986;12.106;2023-04-25T09:20:49;6.77;;;1.60;;
15818;SDS011;8010;53.986;12.106;2023-04-25T09:23:16;4.90;;;1.53;;
15818;SDS011;8010;53.986;12.106;2023-04-25T09:25:45;3.87;;;1.10;;
15818;SDS011;8010;53.986;12.106;2023-04-25T09:28:16;5.67;;;1.40;;
15818;SDS011;8010;53.986;12.106;2023-04-25T09:30:47;8.20;;;1.57;;
15818;SDS011;8010;53.986;12.106;2023-04-25T09:33:13;10.03;;;2.13;;
15818;SDS011;8010;53.986;12.106;2023-04-25T09:35:39;6.70;;;1.50;;
15818;SDS011;8010;53.986;12.106;2023-04-25T09:38:13;4.57;;;1.03;;
15818;SDS011;8010;53.986;12.106;2023-04-25T09:40:43;7.23;;;1.50;;
15818;SDS011;8010;53.986;12.106;2023-04-25T09:43:12;7.83;;;1.33;;
15818;SDS011;8010;53.986;12.106;2023-04-25T09:45:43;4.63;;;1.17;;
15818;SDS011;8010;53.986;12.106;2023-04-25T09:48:11;5.80;;;1.23;;
15818;SDS011;8010;53.986;12.106;2023-04-25T09:50:37;4.27;;;1.90;;
15818;SDS011;8010;53.986;12.106;2023-04-25T09:53:04;6.60;;;1.23;;
15818;SDS011;8010;53.986;12.106;2023-04-25T09:55:31;10.47;;;1.67;;
15818;SDS011;8010;53.986;12.106;2023-04-25T09:57:59;5.83;;;1.00;;
15818;SDS011;8010;53.986;12.106;2023-04-25T10:00:30;8.03;;;1.67;;
15818;SDS011;8010;53.986;12.106;2023-04-25T10:02:56;6.13;;;1.27;;
15818;SDS011;8010;53.986;12.106;2023-04-25T10:05:24;10.87;;;1.83;;
15818;SDS011;8010;53.986;12.106;2023-04-25T10:07:50;7.57;;;1.60;;
15818;SDS011;8010;53.986;12.106;2023-04-25T10:10:17;8.97;;;1.87;;
15818;SDS011;8010;53.986;12.106;2023-04-25T10:12:44;7.60;;;1.77;;
15818;SDS011;8010;53.986;12.106;2023-04-25T10:15:10;5.93;;;1.47;;
15818;SDS011;8010;53.986;12.106;2023-04-25T10:17:37;5.17;;;1.67;;
15818;SDS011;8010;53.986;12.106;2023-04-25T10:20:03;6.03;;;1.57;;
15818;SDS011;8010;53.986;12.106;2023-04-25T10:22:36;5.90;;;1.43;;
15818;SDS011;8010;53.986;12.106;2023-04-25T10:25:04;6.90;;;1.40;;
15818;SDS011;8010;53.986;12.106;2023-04-25T10:27:31;5.07;;;1.70;;
15818;SDS011;8010;53.986;12.106;2023-04-25T10:30:00;3.03;;;1.00;;
15818;SDS011;8010;53.986;12.106;2023-04-25T10:32:32;3.20;;;0.80;;
15818;SDS011;8010;53.986;12.106;2023-04-25T10:35:02;4.83;;;1.53;;
15818;SDS011;8010;53.986;12.106;2023-04-25T10:38:00;4.60;;;1.20;;
15818;SDS011;8010;53.986;12.106;2023-04-25T10:40:28;6.13;;;1.20;;
15818;SDS011;8010;53.986;12.106;2023-04-25T10:42:54;4.20;;;1.60;;
15818;SDS011;8010;53.986;12.106;2023-04-25T10:45:21;6.10;;;1.63;;
15818;SDS011;8010;53.986;12.106;2023-04-25T10:47:46;4.07;;;1.20;;
15818;SDS011;8010;53.986;12.106;2023-04-25T10:50:16;6.23;;;1.37;;
15818;SDS011;8010;53.986;12.106;2023-04-25T10:52:42;8.23;;;1.20;;
15818;SDS011;8010;53.986;12.106;2023-04-25T10:55:08;4.77;;;1.30;;
15818;SDS011;8010;53.986;12.106;2023-04-25T10:57:43;3.23;;;0.77;;
15818;SDS011;8010;53.986;12.106;2023-04-25T11:00:17;10.67;;;2.27;;
15818;SDS011;8010;53.986;12.106;2023-04-25T11:02:53;5.30;;;1.43;;
15818;SDS011;8010;53.986;12.106;2023-04-25T11:05:31;4.93;;;1.60;;
15818;SDS011;8010;53.986;12.106;2023-04-25T11:07:58;6.83;;;1.40;;
15818;SDS011;8010;53.986;12.106;2023-04-25T11:10:28;4.87;;;1.33;;
15818;SDS011;8010;53.986;12.106;2023-04-25T11:12:55;8.67;;;1.20;;
15818;SDS011;8010;53.986;12.106;2023-04-25T11:15:21;5.60;;;1.23;;
15818;SDS011;8010;53.986;12.106;2023-04-25T11:17:47;6.13;;;1.10;;
15818;SDS011;8010;53.986;12.106;2023-04-25T11:20:15;5.83;;;1.40;;
15818;SDS011;8010;53.986;12.106;2023-04-25T11:22:41;7.37;;;1.23;;
15818;SDS011;8010;53.986;12.106;2023-04-25T11:25:09;5.40;;;1.00;;
15818;SDS011;8010;53.986;12.106;2023-04-25T11:30:21;6.10;;;1.17;;
15818;SDS011;8010;53.986;12.106;2023-04-25T11:32:47;5.27;;;1.63;;
15818;SDS011;8010;53.986;12.106;2023-04-25T11:35:13;7.60;;;1.43;;
15818;SDS011;8010;53.986;12.106;2023-04-25T11:37:42;4.67;;;1.47;;
15818;SDS011;8010;53.986;12.106;2023-04-25T11:40:09;3.30;;;1.00;;
15818;SDS011;8010;53.986;12.106;2023-04-25T11:42:36;8.87;;;1.53;;
15818;SDS011;8010;53.986;12.106;2023-04-25T11:45:03;2.40;;;0.70;;
15818;SDS011;8010;53.986;12.106;2023-04-25T11:47:30;4.80;;;1.37;;
15818;SDS011;8010;53.986;12.106;2023-04-25T11:49:58;5.77;;;1.30;;
15818;SDS011;8010;53.986;12.106;2023-04-25T11:52:40;6.53;;;1.83;;
15818;SDS011;8010;53.986;12.106;2023-04-25T11:55:18;5.30;;;1.20;;
15818;SDS011;8010;53.986;12.106;2023-04-25T11:57:45;3.63;;;0.80;;
15818;SDS011;8010;53.986;12.106;2023-04-25T12:00:17;4.27;;;1.20;;
15818;SDS011;8010;53.986;12.106;2023-04-25T12:02:52;5.97;;;1.23;;
15818;SDS011;8010;53.986;12.106;2023-04-25T12:05:19;3.97;;;1.03;;
15818;SDS011;8010;53.986;12.106;2023-04-25T12:07:48;4.30;;;1.00;;
15818;SDS011;8010;53.986;12.106;2023-04-25T12:10:14;3.70;;;0.90;;
15818;SDS011;8010;53.986;12.106;2023-04-25T12:12:41;3.77;;;1.00;;
15818;SDS011;8010;53.986;12.106;2023-04-25T12:15:09;6.13;;;1.47;;
15818;SDS011;8010;53.986;12.106;2023-04-25T12:17:36;8.50;;;1.93;;
15818;SDS011;8010;53.986;12.106;2023-04-25T12:20:07;4.07;;;0.93;;
15818;SDS011;8010;53.986;12.106;2023-04-25T12:22:34;5.73;;;1.37;;
15818;SDS011;8010;53.986;12.106;2023-04-25T12:25:01;6.50;;;1.10;;
15818;SDS011;8010;53.986;12.106;2023-04-25T12:27:30;4.33;;;1.20;;
15818;SDS011;8010;53.986;12.106;2023-04-25T12:29:56;7.40;;;1.10;;
15818;SDS011;8010;53.986;12.106;2023-04-25T12:32:23;4.00;;;1.10;;
15818;SDS011;8010;53.986;12.106;2023-04-25T12:34:49;5.80;;;1.30;;
15818;SDS011;8010;53.986;12.106;2023-04-25T12:37:14;3.67;;;1.10;;
15818;SDS011;8010;53.986;12.106;2023-04-25T12:39:41;4.67;;;0.90;;
15818;SDS011;8010;53.986;12.106;2023-04-25T12:42:06;5.77;;;1.00;;
15818;SDS011;8010;53.986;12.106;2023-04-25T12:44:37;5.17;;;1.67;;
15818;SDS011;8010;53.986;12.106;2023-04-25T12:47:03;4.57;;;0.93;;
15818;SDS011;8010;53.986;12.106;2023-04-25T12:49:28;6.67;;;1.10;;
15818;SDS011;8010;53.986;12.106;2023-04-25T12:51:54;5.37;;;1.20;;
15818;SDS011;8010;53.986;12.106;2023-04-25T12:54:19;7.33;;;1.07;;
15818;SDS011;8010;53.986;12.106;2023-04-25T12:56:45;3.33;;;1.07;;
15818;SDS011;8010;53.986;12.106;2023-04-25T12:59:11;5.37;;;1.10;;
15818;SDS011;8010;53.986;12.106;2023-04-25T13:01:36;3.97;;;1.27;;
15818;SDS011;8010;53.986;12.106;2023-04-25T13:04:02;3.70;;;0.97;;
15818;SDS011;8010;53.986;12.106;2023-04-25T13:06:28;2.27;;;0.67;;
15818;SDS011;8010;53.986;12.106;2023-04-25T13:08:55;4.23;;;0.90;;
15818;SDS011;8010;53.986;12.106;2023-04-25T13:11:20;4.77;;;0.80;;
15818;SDS011;8010;53.986;12.106;2023-04-25T13:13:46;4.47;;;0.90;;
15818;SDS011;8010;53.986;12.106;2023-04-25T13:16:11;5.20;;;1.10;;
15818;SDS011;8010;53.986;12.106;2023-04-25T13:18:40;3.03;;;0.97;;
15818;SDS011;8010;53.986;12.106;2023-04-25T13:21:06;3.60;;;0.60;;
15818;SDS011;8010;53.986;12.106;2023-04-25T13:23:31;2.97;;;0.70;;
15818;SDS011;8010;53.986;12.106;2023-04-25T13:25:57;5.93;;;1.17;;
15818;SDS011;8010;53.986;12.106;2023-04-25T13:28:23;7.23;;;1.23;;
15818;SDS011;8010;53.986;12.106;2023-04-25T13:30:49;2.37;;;0.70;;
15818;SDS011;8010;53.986;12.106;2023-04-25T13:33:16;5.87;;;1.10;;
15818;SDS011;8010;53.986;12.106;2023-04-25T13:35:42;8.43;;;1.50;;
15818;SDS011;8010;53.986;12.106;2023-04-25T13:38:08;3.90;;;0.63;;
15818;SDS011;8010;53.986;12.106;2023-04-25T13:40:34;3.10;;;1.00;;
15818;SDS011;8010;53.986;12.106;2023-04-25T13:43:00;5.60;;;0.80;;
15818;SDS011;8010;53.986;12.106;2023-04-25T13:45:26;1.50;;;0.57;;
15818;SDS011;8010;53.986;12.106;2023-04-25T13:47:52;4.50;;;1.00;;
15818;SDS011;8010;53.986;12.106;2023-04-25T13:50:17;3.53;;;0.93;;
15818;SDS011;8010;53.986;12.106;2023-04-25T13:52:43;5.70;;;1.60;;
15818;SDS011;8010;53.986;12.106;2023-04-25T13:55:08;4.93;;;1.03;;
15818;SDS011;8010;53.986;12.106;2023-04-25T13:57:35;6.40;;;1.20;;
15818;SDS011;8010;53.986;12.106;2023-04-25T14:00:02;6.50;;;1.20;;
15818;SDS011;8010;53.986;12.106;2023-04-25T14:02:33;3.67;;;0.70;;
15818;SDS011;8010;53.986;12.106;2023-04-25T14:05:02;1.73;;;0.60;;
15818;SDS011;8010;53.986;12.106;2023-04-25T14:07:28;4.23;;;0.60;;
15818;SDS011;8010;53.986;12.106;2023-04-25T14:09:55;2.73;;;0.60;;
15818;SDS011;8010;53.986;12.106;2023-04-25T14:12:22;4.10;;;0.90;;
15818;SDS011;8010;53.986;12.106;2023-04-25T14:14:48;4.93;;;0.90;;
15818;SDS011;8010;53.986;12.106;2023-04-25T14:17:13;2.63;;;0.73;;
15818;SDS011;8010;53.986;12.106;2023-04-25T14:19:39;5.03;;;1.13;;
15818;SDS011;8010;53.986;12.106;2023-04-25T14:22:08;5.87;;;1.00;;
15818;SDS011;8010;53.986;12.106;2023-04-25T14:24:34;4.87;;;1.10;;
15818;SDS011;8010;53.986;12.106;2023-04-25T14:26:59;3.23;;;1.00;;
15818;SDS011;8010;53.986;12.106;2023-04-25T14:29:25;7.23;;;1.00;;
15818;SDS011;8010;53.986;12.106;2023-04-25T14:31:51;4.57;;;1.13;;
15818;SDS011;8010;53.986;12.106;2023-04-25T14:34:17;1.73;;;0.90;;
15818;SDS011;8010;53.986;12.106;2023-04-25T14:36:43;2.97;;;0.90;;
15818;SDS011;8010;53.986;12.106;2023-04-25T14:39:08;3.83;;;1.07;;
15818;SDS011;8010;53.986;12.106;2023-04-25T14:41:35;4.10;;;1.00;;
15818;SDS011;8010;53.986;12.106;2023-04-25T14:44:00;3.37;;;0.77;;